createdAt,value
2023-05-25T00:01:02.055Z,1.00
2023-05-25T00:03:31.387Z,1.00
2023-05-25T00:06:01.267Z,1.00
2023-05-25T00:08:28.330Z,1.00
2023-05-25T00:10:54.959Z,1.00
2023-05-25T00:13:21.557Z,1.00
2023-05-25T00:15:48.295Z,1.00
2023-05-25T00:18:14.935Z,1.00
2023-05-25T00:20:41.664Z,1.00
2023-05-25T00:23:08.504Z,1.00
2023-05-25T00:25:35.107Z,1.00
2023-05-25T00:28:04.404Z,1.00
2023-05-25T00:30:31.128Z,1.00
2023-05-25T00:32:57.829Z,1.00
2023-05-25T00:35:24.500Z,1.00
2023-05-25T00:37:51.632Z,1.00
2023-05-25T00:40:18.511Z,1.00
2023-05-25T00:42:45.199Z,1.10
2023-05-25T00:45:11.791Z,1.00
2023-05-25T00:47:39.602Z,3.40
2023-05-25T00:50:08.586Z,3.10
2023-05-25T00:52:35.399Z,3.40
2023-05-25T00:55:03.330Z,4.30
2023-05-25T00:57:34.103Z,7.30
2023-05-25T01:00:02.766Z,5.70
2023-05-25T01:02:29.627Z,7.10
2023-05-25T01:04:59.889Z,7.60
2023-05-25T01:07:27.191Z,6.00
2023-05-25T01:10:01.667Z,8.10
2023-05-25T01:12:32.073Z,8.30
2023-05-25T01:14:59.894Z,9.40
2023-05-25T01:17:28.988Z,9.40
2023-05-25T01:20:09.757Z,9.60
2023-05-25T01:22:38.413Z,8.50
2023-05-25T01:25:11.079Z,7.60
2023-05-25T01:27:40.730Z,7.10
2023-05-25T01:30:09.267Z,8.50
2023-05-25T01:32:37.379Z,8.40
2023-05-25T01:35:04.533Z,8.10
2023-05-25T01:37:32.154Z,8.20
2023-05-25T01:39:58.729Z,8.80
2023-05-25T01:42:25.461Z,8.80
2023-05-25T01:44:52.047Z,9.70
2023-05-25T01:47:34.882Z,9.90
2023-05-25T01:50:05.114Z,9.70
2023-05-25T01:52:36.567Z,9.70
2023-05-25T01:55:06.226Z,9.70
2023-05-25T01:57:35.781Z,11.10
2023-05-25T02:00:03.259Z,12.20
2023-05-25T02:04:57.638Z,9.60
2023-05-25T02:09:51.344Z,9.70
2023-05-25T02:12:18.290Z,9.70
2023-05-25T02:14:48.399Z,12.20
2023-05-25T02:17:17.853Z,11.00
2023-05-25T02:27:06.535Z,12.70
2023-05-25T02:32:00.343Z,13.30
2023-05-25T02:36:54.035Z,14.20
2023-05-25T02:39:21.138Z,14.50
2023-05-25T02:44:14.752Z,14.10
2023-05-25T02:51:36.012Z,16.60
2023-05-25T02:58:57.005Z,16.90
2023-05-25T03:01:25.469Z,17.20
2023-05-25T03:03:52.520Z,18.00
2023-05-25T03:06:21.439Z,19.20
2023-05-25T03:08:48.142Z,19.70
2023-05-25T03:11:15.014Z,20.10
2023-05-25T03:13:41.711Z,20.50
2023-05-25T03:16:08.342Z,21.70
2023-05-25T03:18:36.908Z,21.70
2023-05-25T03:21:03.583Z,20.50
2023-05-25T03:23:30.301Z,19.90
2023-05-25T03:25:59.739Z,21.50
2023-05-25T03:28:26.453Z,21.50
2023-05-25T03:30:53.075Z,21.50
2023-05-25T03:33:20.142Z,22.60
2023-05-25T03:35:47.110Z,23.60
2023-05-25T03:38:13.803Z,23.70
2023-05-25T03:40:40.513Z,24.40
2023-05-25T03:55:22.803Z,23.10
2023-05-25T03:57:49.505Z,23.50
2023-05-25T04:05:11.965Z,23.20
2023-05-25T04:15:00.161Z,22.20
2023-05-25T04:17:26.961Z,23.50
2023-05-25T04:22:20.944Z,22.00
2023-05-25T04:27:15.946Z,18.80
2023-05-25T04:29:43.032Z,18.80
2023-05-25T04:32:09.776Z,19.40
2023-05-25T04:37:05.516Z,18.90
2023-05-25T04:39:32.778Z,19.80
2023-05-25T04:42:01.555Z,19.30
2023-05-25T04:44:29.916Z,19.50
2023-05-25T04:46:56.837Z,19.50
2023-05-25T04:49:23.466Z,19.50
2023-05-25T04:51:50.170Z,19.50
2023-05-25T04:54:16.861Z,19.60
2023-05-25T04:56:44.088Z,19.70
2023-05-25T04:59:11.110Z,19.20
2023-05-25T05:01:41.445Z,18.30
2023-05-25T05:04:08.372Z,17.20
2023-05-25T05:06:36.640Z,15.10
2023-05-25T05:09:03.500Z,13.80
2023-05-25T05:11:30.135Z,13.70
2023-05-25T05:13:56.783Z,13.60
2023-05-25T05:16:23.539Z,12.50
2023-05-25T05:18:50.531Z,11.10
2023-05-25T05:21:17.203Z,10.70
2023-05-25T05:23:43.974Z,10.70
2023-05-25T05:26:11.783Z,9.10
2023-05-25T05:28:38.449Z,8.00
2023-05-25T05:33:32.511Z,6.10
2023-05-25T05:35:59.260Z,6.00
2023-05-25T05:38:25.914Z,6.10
2023-05-25T05:40:52.520Z,3.00
2023-05-25T05:45:46.464Z,1.70
2023-05-25T05:50:42.014Z,1.00
2023-05-25T05:53:09.968Z,1.00
2023-05-25T05:58:04.071Z,1.00
2023-05-25T06:02:58.322Z,1.00
2023-05-25T06:05:25.267Z,1.00
2023-05-25T06:07:52.404Z,1.00
2023-05-25T06:10:19.012Z,1.00
2023-05-25T06:12:45.650Z,1.00
2023-05-25T06:15:12.253Z,1.00
2023-05-25T06:17:38.953Z,1.00
2023-05-25T06:20:06.626Z,1.00
2023-05-25T06:22:33.507Z,1.00
2023-05-25T06:25:00.806Z,1.00
2023-05-25T06:27:27.611Z,1.00
2023-05-25T06:29:54.395Z,1.00
2023-05-25T06:32:21.046Z,1.00
2023-05-25T06:34:47.683Z,1.00
2023-05-25T06:37:14.924Z,1.00
2023-05-25T06:39:43.214Z,1.00
2023-05-25T06:42:10.207Z,1.00
2023-05-25T06:44:36.866Z,1.00
2023-05-25T06:47:03.510Z,1.00
2023-05-25T06:49:30.354Z,1.00
2023-05-25T06:51:56.936Z,1.00
2023-05-25T06:54:23.509Z,1.00
2023-05-25T06:56:50.193Z,1.00
2023-05-25T06:59:18.292Z,1.00
2023-05-25T07:01:48.524Z,1.00
2023-05-25T07:04:15.261Z,1.00
2023-05-25T07:06:41.898Z,1.00
2023-05-25T07:09:08.629Z,1.00
2023-05-25T07:11:35.291Z,1.00
2023-05-25T07:14:01.912Z,1.00
2023-05-25T07:16:28.540Z,1.00
2023-05-25T07:18:55.144Z,1.00
2023-05-25T07:21:21.846Z,1.00
2023-05-25T07:23:48.469Z,1.00
2023-05-25T07:26:15.728Z,1.00
2023-05-25T07:28:42.402Z,1.00
2023-05-25T07:31:10.436Z,1.00
2023-05-25T07:33:37.049Z,1.00
2023-05-25T07:36:03.767Z,1.00
2023-05-25T07:38:30.378Z,1.00
2023-05-25T07:40:56.937Z,1.00
2023-05-25T07:43:23.685Z,1.00
2023-05-25T07:45:50.443Z,1.00
2023-05-25T07:48:17.117Z,1.00
2023-05-25T07:50:43.749Z,1.00
2023-05-25T07:53:10.563Z,1.00
2023-05-25T07:55:37.248Z,1.00
2023-05-25T07:58:04.119Z,1.00
2023-05-25T08:00:30.913Z,1.00
2023-05-25T08:02:57.722Z,1.00
2023-05-25T08:05:24.569Z,1.00
2023-05-25T08:07:51.209Z,1.00
2023-05-25T08:10:17.826Z,1.00
2023-05-25T08:12:49.715Z,1.00
2023-05-25T08:15:17.171Z,1.00
2023-05-25T08:17:44.091Z,1.00
2023-05-25T08:20:11.302Z,1.00
2023-05-25T08:22:37.989Z,1.00
2023-05-25T08:25:05.116Z,1.00
2023-05-25T08:27:34.421Z,1.00
2023-05-25T08:30:02.496Z,1.00
2023-05-25T08:32:29.129Z,1.00
2023-05-25T08:34:56.118Z,1.00
2023-05-25T08:37:24.814Z,1.00
2023-05-25T08:39:51.624Z,1.00
2023-05-25T08:42:18.236Z,1.00
2023-05-25T08:44:44.912Z,1.00
2023-05-25T08:47:12.307Z,1.00
2023-05-25T08:49:39.388Z,1.00
2023-05-25T08:52:07.852Z,1.00
2023-05-25T08:54:35.922Z,1.00
2023-05-25T08:57:06.556Z,1.00
2023-05-25T08:59:53.384Z,1.00
2023-05-25T09:02:33.081Z,1.00
2023-05-25T09:05:01.459Z,1.00
2023-05-25T09:07:29.978Z,1.00
2023-05-25T09:09:57.732Z,1.00
2023-05-25T09:12:24.463Z,1.00
2023-05-25T09:14:52.916Z,1.00
2023-05-25T09:17:21.183Z,1.00
2023-05-25T09:19:47.844Z,1.00
2023-05-25T09:22:17.007Z,1.00
2023-05-25T09:24:44.859Z,1.00
2023-05-25T09:27:12.324Z,1.00
2023-05-25T09:29:39.003Z,1.00
2023-05-25T09:32:07.059Z,1.00
2023-05-25T09:34:36.759Z,1.00
2023-05-25T09:37:04.377Z,1.00
2023-05-25T09:39:31.257Z,1.00
2023-05-25T09:41:58.015Z,1.00
2023-05-25T09:44:24.648Z,1.00
2023-05-25T09:46:51.310Z,1.00
2023-05-25T09:49:19.811Z,1.00
2023-05-25T09:51:47.145Z,1.00
2023-05-25T09:54:13.826Z,1.00
2023-05-25T09:56:41.326Z,1.00
2023-05-25T09:59:07.984Z,1.00
2023-05-25T10:01:34.907Z,1.00
2023-05-25T10:04:05.190Z,1.00
2023-05-25T10:06:33.423Z,1.00
2023-05-25T10:09:00.744Z,1.00
2023-05-25T10:11:27.717Z,1.00
2023-05-25T10:13:55.286Z,1.00
2023-05-25T10:16:25.759Z,1.00
2023-05-25T10:19:01.077Z,1.00
2023-05-25T10:21:29.067Z,1.00
2023-05-25T10:24:00.180Z,1.00
2023-05-25T10:26:27.808Z,1.00
2023-05-25T10:28:56.651Z,1.00
2023-05-25T10:31:28.690Z,1.00
2023-05-25T10:33:56.561Z,1.00
2023-05-25T10:36:23.515Z,1.00
2023-05-25T10:38:51.196Z,1.00
2023-05-25T10:41:19.488Z,1.00
2023-05-25T10:43:46.262Z,1.00
2023-05-25T10:46:15.063Z,1.00
2023-05-25T10:48:48.860Z,1.00
2023-05-25T10:51:15.791Z,1.00
2023-05-25T10:53:46.179Z,1.00
2023-05-25T10:56:13.566Z,1.00
2023-05-25T10:58:46.804Z,1.00
2023-05-25T11:01:14.421Z,1.00
2023-05-25T11:03:44.065Z,1.00
2023-05-25T11:06:11.527Z,1.00
2023-05-25T11:08:51.083Z,1.00
2023-05-25T11:11:17.704Z,1.00
2023-05-25T11:13:45.350Z,1.00
2023-05-25T11:16:17.715Z,1.00
2023-05-25T11:18:46.463Z,1.00
2023-05-25T11:21:18.708Z,1.00
2023-05-25T11:23:58.555Z,1.00
2023-05-25T11:26:29.269Z,1.00
2023-05-25T11:28:58.823Z,1.00
2023-05-25T11:31:31.630Z,1.00
2023-05-25T11:34:01.039Z,1.00
2023-05-25T11:36:31.685Z,1.00
2023-05-25T11:39:06.529Z,1.00
2023-05-25T11:41:38.506Z,1.00
2023-05-25T11:44:08.404Z,1.00
2023-05-25T11:46:35.227Z,1.00
2023-05-25T11:49:01.953Z,1.00
2023-05-25T11:51:29.572Z,1.00
2023-05-25T11:53:56.692Z,1.00
2023-05-25T11:56:34.413Z,1.00
2023-05-25T11:59:02.049Z,1.00
2023-05-25T12:01:31.848Z,1.00
2023-05-25T12:03:58.882Z,1.00
2023-05-25T12:06:26.493Z,1.00
2023-05-25T12:08:53.688Z,1.00
2023-05-25T12:11:30.181Z,1.00
2023-05-25T12:13:57.137Z,1.00
2023-05-25T12:16:24.307Z,1.00
2023-05-25T12:18:51.712Z,1.00
2023-05-25T12:21:18.914Z,1.00
2023-05-25T12:23:45.566Z,1.00
2023-05-25T12:26:13.359Z,1.00
2023-05-25T12:28:40.535Z,1.00
2023-05-25T12:31:19.954Z,1.00
2023-05-25T12:33:46.662Z,1.00
2023-05-25T12:36:13.281Z,1.00
2023-05-25T12:38:39.981Z,1.00
2023-05-25T12:41:07.136Z,1.00
2023-05-25T12:43:37.718Z,1.00
2023-05-25T12:46:04.346Z,1.00
2023-05-25T12:48:31.884Z,1.00
2023-05-25T12:50:58.711Z,1.00
2023-05-25T12:53:27.113Z,1.00
2023-05-25T12:56:03.805Z,1.00
2023-05-25T12:58:30.745Z,1.00
2023-05-25T13:00:57.528Z,1.00
2023-05-25T13:03:24.319Z,1.00
2023-05-25T13:05:51.753Z,1.00
2023-05-25T13:08:18.437Z,1.00
2023-05-25T13:10:48.581Z,1.00
2023-05-25T13:13:15.173Z,1.00
2023-05-25T13:15:41.801Z,1.00
2023-05-25T13:18:08.599Z,1.00
2023-05-25T13:20:36.665Z,1.00
2023-05-25T13:23:03.526Z,1.00
2023-05-25T13:25:30.226Z,1.00
2023-05-25T13:27:59.670Z,1.00
2023-05-25T13:30:26.708Z,1.00
2023-05-25T13:32:53.469Z,1.00
2023-05-25T13:35:37.089Z,1.00
2023-05-25T13:38:03.980Z,1.00
2023-05-25T13:40:30.676Z,1.00
2023-05-25T13:42:57.451Z,1.00
2023-05-25T13:45:24.055Z,1.00
2023-05-25T13:47:51.535Z,1.00
2023-05-25T13:50:18.524Z,1.00
2023-05-25T13:52:45.746Z,1.00
2023-05-25T13:55:12.464Z,1.00
2023-05-25T13:57:39.153Z,1.00
2023-05-25T14:00:08.180Z,1.00
2023-05-25T14:02:35.280Z,1.00
2023-05-25T14:05:02.217Z,1.00
2023-05-25T14:07:28.814Z,1.00
2023-05-25T14:09:56.263Z,1.00
2023-05-25T14:12:23.803Z,1.00
2023-05-25T14:14:51.100Z,1.00
2023-05-25T14:17:17.875Z,1.00
2023-05-25T14:19:44.495Z,1.00
2023-05-25T14:22:13.129Z,1.00
2023-05-25T14:24:40.953Z,1.00
2023-05-25T14:27:07.561Z,1.00
2023-05-25T14:29:34.192Z,1.00
2023-05-25T14:32:01.218Z,1.00
2023-05-25T14:34:28.626Z,1.00
2023-05-25T14:36:55.498Z,1.00
2023-05-25T14:39:22.111Z,1.00
2023-05-25T14:41:48.735Z,1.00
2023-05-25T14:44:15.373Z,1.00
2023-05-25T14:46:42.451Z,1.00
2023-05-25T14:49:09.237Z,1.00
2023-05-25T14:51:35.900Z,1.00
2023-05-25T14:54:05.367Z,1.00
2023-05-25T14:56:31.963Z,1.00
2023-05-25T14:58:58.764Z,1.00
2023-05-25T15:01:25.681Z,1.00
2023-05-25T15:03:52.748Z,1.00
2023-05-25T15:06:19.615Z,1.00
2023-05-25T15:08:46.297Z,1.00
2023-05-25T15:11:13.264Z,1.00
2023-05-25T15:13:40.937Z,1.00
2023-05-25T15:16:11.239Z,1.00
2023-05-25T15:18:37.982Z,1.00
2023-05-25T15:21:04.700Z,1.00
2023-05-25T15:23:32.301Z,1.00
2023-05-25T15:26:03.180Z,1.00
2023-05-25T15:28:32.805Z,1.00
2023-05-25T15:31:02.581Z,1.00
2023-05-25T15:33:47.186Z,1.00
2023-05-25T15:36:16.852Z,1.00
2023-05-25T15:38:44.424Z,1.00
2023-05-25T15:41:14.360Z,1.00
2023-05-25T15:43:40.934Z,1.00
2023-05-25T15:46:07.610Z,1.00
2023-05-25T15:48:34.187Z,1.00
2023-05-25T15:51:01.026Z,1.00
2023-05-25T15:53:27.639Z,1.00
2023-05-25T15:55:54.193Z,1.00
2023-05-25T15:58:20.870Z,1.00
2023-05-25T16:00:47.707Z,1.00
2023-05-25T16:03:14.405Z,1.00
2023-05-25T16:05:40.994Z,1.00
2023-05-25T16:08:07.635Z,1.00
2023-05-25T16:10:34.264Z,1.00
2023-05-25T16:13:01.049Z,1.00
2023-05-25T16:15:27.635Z,1.00
2023-05-25T16:17:54.725Z,1.00
2023-05-25T16:20:21.371Z,1.00
2023-05-25T16:22:47.970Z,1.00
2023-05-25T16:25:14.582Z,1.00
2023-05-25T16:27:41.344Z,1.00
2023-05-25T16:30:08.440Z,1.00
2023-05-25T16:32:35.734Z,1.00
2023-05-25T16:35:02.484Z,1.00
2023-05-25T16:37:29.128Z,1.00
2023-05-25T16:39:55.724Z,1.00
2023-05-25T16:42:24.994Z,1.00
2023-05-25T16:44:51.784Z,1.00
2023-05-25T16:47:18.423Z,1.00
2023-05-25T16:49:45.003Z,1.00
2023-05-25T16:52:11.660Z,1.00
2023-05-25T16:54:38.627Z,1.00
2023-05-25T16:57:06.846Z,1.00
2023-05-25T16:59:33.853Z,1.00
2023-05-25T17:02:00.824Z,1.00
2023-05-25T17:04:27.529Z,1.00
2023-05-25T17:06:54.234Z,1.00
2023-05-25T17:09:21.146Z,1.00
2023-05-25T17:11:47.752Z,1.00
2023-05-25T17:14:14.364Z,1.00
2023-05-25T17:16:41.879Z,1.00
2023-05-25T17:19:10.676Z,1.00
2023-05-25T17:21:37.402Z,1.00
2023-05-25T17:24:04.038Z,1.00
2023-05-25T17:26:30.669Z,1.00
2023-05-25T17:28:59.094Z,1.00
2023-05-25T17:31:27.770Z,1.00
2023-05-25T17:33:55.039Z,1.00
2023-05-25T17:36:23.054Z,1.00
2023-05-25T17:38:50.037Z,1.00
2023-05-25T17:41:17.013Z,1.00
2023-05-25T17:43:43.656Z,1.00
2023-05-25T17:46:11.375Z,1.00
2023-05-25T17:48:38.005Z,1.00
2023-05-25T17:51:05.608Z,1.00
2023-05-25T17:53:32.387Z,1.00
2023-05-25T17:55:59.302Z,1.00
2023-05-25T17:58:26.232Z,1.00
2023-05-25T18:00:52.924Z,1.00
2023-05-25T18:03:19.772Z,1.00
2023-05-25T18:05:46.680Z,1.00
2023-05-25T18:08:13.490Z,1.00
2023-05-25T18:10:40.219Z,1.00
2023-05-25T18:13:06.837Z,1.00
2023-05-25T18:15:34.194Z,1.00
2023-05-25T18:18:01.040Z,1.00
2023-05-25T18:20:27.853Z,1.00
2023-05-25T18:22:54.544Z,1.00
2023-05-25T18:25:21.169Z,1.00
2023-05-25T18:27:48.152Z,1.00
2023-05-25T18:30:15.038Z,1.00
2023-05-25T18:32:41.728Z,1.00
2023-05-25T18:35:08.652Z,1.00
2023-05-25T18:37:35.932Z,1.00
2023-05-25T18:40:03.236Z,1.00
2023-05-25T18:42:29.896Z,1.00
2023-05-25T18:44:56.500Z,1.00
2023-05-25T18:47:23.152Z,1.00
2023-05-25T18:49:49.845Z,1.00
2023-05-25T18:52:16.519Z,1.00
2023-05-25T18:54:43.152Z,1.00
2023-05-25T18:57:09.748Z,1.00
2023-05-25T18:59:36.413Z,1.00
2023-05-25T19:02:03.218Z,1.00
2023-05-25T19:04:29.849Z,1.00
2023-05-25T19:06:56.601Z,1.00
2023-05-25T19:09:23.176Z,1.00
2023-05-25T19:11:49.808Z,1.00
2023-05-25T19:14:16.558Z,1.00
2023-05-25T19:16:43.365Z,1.00
2023-05-25T19:19:10.078Z,1.00
2023-05-25T19:21:37.077Z,1.00
2023-05-25T19:24:03.892Z,1.00
2023-05-25T19:26:30.521Z,1.00
2023-05-25T19:28:57.401Z,1.00
2023-05-25T19:31:25.001Z,1.00
2023-05-25T19:33:51.629Z,1.00
2023-05-25T19:36:18.258Z,1.00
2023-05-25T19:38:44.906Z,1.00
2023-05-25T19:41:11.589Z,1.00
2023-05-25T19:43:38.264Z,1.00
2023-05-25T19:46:04.994Z,1.00
2023-05-25T19:48:31.785Z,1.00
2023-05-25T19:50:58.378Z,1.00
2023-05-25T19:53:24.955Z,1.00
2023-05-25T19:55:51.629Z,1.00
2023-05-25T19:58:18.222Z,1.00
2023-05-25T20:00:44.853Z,1.00
2023-05-25T20:03:11.617Z,1.00
2023-05-25T20:05:38.701Z,1.00
2023-05-25T20:08:05.884Z,1.00
2023-05-25T20:10:38.979Z,1.00
2023-05-25T20:13:06.413Z,1.00
2023-05-25T20:15:33.018Z,1.00
2023-05-25T20:17:59.699Z,1.00
2023-05-25T20:20:26.418Z,1.00
2023-05-25T20:22:53.068Z,1.00
2023-05-25T20:25:19.644Z,1.00
2023-05-25T20:27:46.335Z,1.00
2023-05-25T20:32:41.586Z,1.00
2023-05-25T20:35:08.435Z,1.00
2023-05-25T20:37:35.015Z,1.00
2023-05-25T20:40:01.617Z,1.00
2023-05-25T20:42:28.182Z,1.00
2023-05-25T20:44:54.782Z,1.00
2023-05-25T20:47:21.426Z,1.00
2023-05-25T20:49:48.048Z,1.00
2023-05-25T20:52:14.660Z,1.00
2023-05-25T20:54:44.660Z,1.00
2023-05-25T20:57:11.987Z,1.00
2023-05-25T20:59:38.752Z,1.00
2023-05-25T21:02:06.212Z,1.00
2023-05-25T21:04:33.022Z,1.00
2023-05-25T21:06:59.853Z,1.00
2023-05-25T21:09:26.521Z,1.00
2023-05-25T21:11:53.102Z,1.00
2023-05-25T21:14:19.760Z,1.00
2023-05-25T21:16:46.744Z,1.00
2023-05-25T21:19:13.419Z,1.00
2023-05-25T21:21:40.092Z,1.00
2023-05-25T21:24:06.733Z,1.00
2023-05-25T21:26:33.394Z,1.00
2023-05-25T21:29:00.032Z,1.00
2023-05-25T21:31:26.745Z,1.00
2023-05-25T21:33:53.406Z,1.00
2023-05-25T21:36:20.706Z,1.00
2023-05-25T21:38:47.319Z,1.00
2023-05-25T21:41:14.108Z,1.00
2023-05-25T21:43:40.718Z,1.00
2023-05-25T21:46:07.337Z,1.00
2023-05-25T21:48:33.954Z,1.00
2023-05-25T21:51:00.657Z,1.00
2023-05-25T21:53:27.248Z,1.00
2023-05-25T21:55:53.899Z,1.00
2023-05-25T21:58:20.504Z,1.00
2023-05-25T22:00:47.144Z,1.00
2023-05-25T22:03:14.399Z,1.00
2023-05-25T22:05:41.226Z,1.00
2023-05-25T22:08:08.736Z,1.00
2023-05-25T22:10:35.880Z,1.00
2023-05-25T22:13:02.571Z,1.00
2023-05-25T22:15:29.125Z,1.00
2023-05-25T22:17:56.360Z,1.00
2023-05-25T22:20:23.115Z,1.00
2023-05-25T22:22:49.891Z,1.00
2023-05-25T22:25:16.566Z,1.00
2023-05-25T22:27:43.229Z,1.00
2023-05-25T22:30:10.107Z,1.00
2023-05-25T22:32:37.128Z,1.00
2023-05-25T22:35:03.957Z,1.00
2023-05-25T22:37:30.595Z,1.00
2023-05-25T22:39:57.405Z,1.00
2023-05-25T22:42:24.025Z,1.00
2023-05-25T22:44:51.196Z,1.00
2023-05-25T22:47:17.996Z,1.00
2023-05-25T22:49:44.718Z,1.00
2023-05-25T22:52:11.480Z,1.00
2023-05-25T22:54:38.122Z,1.00
2023-05-25T22:57:06.149Z,1.00
2023-05-25T22:59:32.750Z,1.00
2023-05-25T23:01:59.503Z,1.00
2023-05-25T23:04:26.234Z,1.00
2023-05-25T23:06:52.911Z,1.00
2023-05-25T23:09:20.245Z,1.00
2023-05-25T23:11:46.942Z,1.00
2023-05-25T23:14:13.786Z,1.00
2023-05-25T23:16:41.491Z,1.00
2023-05-25T23:19:08.388Z,1.00
2023-05-25T23:21:35.081Z,1.00
2023-05-25T23:24:01.858Z,1.00
2023-05-25T23:26:28.438Z,1.00
2023-05-25T23:28:55.110Z,1.00
2023-05-25T23:31:21.790Z,1.00
2023-05-25T23:33:48.867Z,1.00
2023-05-25T23:36:15.544Z,1.00
2023-05-25T23:38:42.182Z,1.00
2023-05-25T23:41:08.768Z,1.00
2023-05-25T23:46:02.858Z,1.00
2023-05-25T23:48:29.456Z,1.00
2023-05-25T23:50:56.097Z,1.00
2023-05-25T23:53:22.659Z,1.00
2023-05-25T23:55:49.384Z,1.00
2023-05-25T23:58:16.123Z,1.00
